Time;durP1;ratioP1;P1;durP2;ratioP2;P2;SDS_P1;SDS_P2;PMS_P1;PMS_P2;Temp;Humidity;BMP_temperature;BMP_pressure;BME280_temperature;BME280_humidity;BME280_pressure;Samples;Min_cycle;Max_cycle;Signal;HPM_P1;HPM_P2
2022/10/28 00:01:21;;;;;;;8.73;3.77;;;18.10;99.90;;;;;;5051923;28;20989;-86
2022/10/28 00:03:50;;;;;;;6.63;3.13;;;18.00;99.90;;;;;;5052266;28;20488;-85
2022/10/28 00:06:19;;;;;;;9.17;4.10;;;18.10;99.90;;;;;;5042385;28;20462;-85
2022/10/28 00:08:46;;;;;;;4.90;3.07;;;18.00;99.90;;;;;;5029241;28;20447;-84
2022/10/28 00:11:16;;;;;;;8.63;3.47;;;18.10;99.90;;;;;;5032070;28;20483;-86
2022/10/28 00:13:45;;;;;;;6.43;3.40;;;18.10;99.90;;;;;;5035681;28;20460;-85
2022/10/28 00:16:14;;;;;;;5.23;3.10;;;18.20;99.90;;;;;;5036144;28;20476;-86
2022/10/28 00:18:41;;;;;;;6.20;3.40;;;18.20;99.90;;;;;;5035393;28;20561;-85
2022/10/28 00:21:10;;;;;;;10.70;4.23;;;18.20;99.90;;;;;;5053481;28;20507;-84
2022/10/28 00:23:37;;;;;;;6.90;3.43;;;18.20;99.90;;;;;;5055854;28;20469;-84
2022/10/28 00:26:09;;;;;;;10.20;3.83;;;18.30;99.90;;;;;;5056170;28;20446;-86
2022/10/28 00:28:40;;;;;;;9.73;4.07;;;18.30;99.90;;;;;;5054515;28;20459;-85
2022/10/28 00:31:09;;;;;;;5.40;2.97;;;18.30;99.90;;;;;;5055352;28;20489;-84
2022/10/28 00:33:35;;;;;;;5.87;2.97;;;18.30;99.90;;;;;;5048224;28;20462;-86
2022/10/28 00:36:13;;;;;;;6.20;3.23;;;18.30;99.90;;;;;;5035328;28;20461;-86
2022/10/28 00:38:41;;;;;;;7.43;3.73;;;18.30;99.90;;;;;;5035231;28;20442;-84
2022/10/28 00:41:09;;;;;;;9.40;3.50;;;18.40;99.90;;;;;;5035077;28;20494;-85
2022/10/28 00:43:40;;;;;;;7.47;3.80;;;18.40;99.90;;;;;;5036959;28;20824;-86
2022/10/28 00:46:14;;;;;;;7.20;2.93;;;18.30;99.90;;;;;;5035797;28;20438;-83
2022/10/28 00:48:44;;;;;;;6.80;2.87;;;18.30;99.90;;;;;;5035034;28;20463;-85
2022/10/28 00:51:12;;;;;;;7.13;3.60;;;18.30;99.90;;;;;;5035282;28;20828;-85
2022/10/28 00:53:41;;;;;;;10.73;2.93;;;18.30;99.90;;;;;;5034357;28;20455;-85
2022/10/28 00:56:10;;;;;;;6.20;3.10;;;18.30;99.90;;;;;;5041029;28;20459;-84
2022/10/28 00:58:39;;;;;;;10.73;3.10;;;18.30;99.90;;;;;;5054649;28;20461;-85
2022/10/28 01:01:05;;;;;;;5.43;2.93;;;18.30;99.90;;;;;;5055020;28;20850;-86
2022/10/28 01:03:32;;;;;;;6.47;3.40;;;18.30;99.90;;;;;;5054377;28;20454;-85
2022/10/28 01:06:00;;;;;;;7.60;3.20;;;18.30;99.90;;;;;;5054724;28;20494;-84
2022/10/28 01:08:27;;;;;;;7.80;3.40;;;18.20;99.90;;;;;;5054470;28;20459;-85
2022/10/28 01:11:15;;;;;;;6.97;2.83;;;18.10;99.90;;;;;;5039749;28;20478;-83
2022/10/28 01:13:53;;;;;;;10.53;3.80;;;18.20;99.90;;;;;;5035034;28;20440;-85
2022/10/28 01:16:32;;;;;;;5.90;3.10;;;18.20;99.90;;;;;;5035585;28;20930;-84
2022/10/28 01:19:15;;;;;;;7.10;3.30;;;18.20;99.90;;;;;;5033720;28;20439;-86
2022/10/28 01:22:09;;;;;;;7.70;2.87;;;18.20;99.90;;;;;;5034952;28;20490;-85
2022/10/28 01:24:52;;;;;;;5.60;3.37;;;18.20;99.90;;;;;;5048301;28;20489;-86
2022/10/28 01:27:52;;;;;;;7.20;3.70;;;18.30;99.90;;;;;;5055253;28;20452;-85
2022/10/28 01:30:23;;;;;;;8.20;3.23;;;18.40;99.90;;;;;;5054622;28;20465;-84
2022/10/28 01:33:02;;;;;;;7.47;3.30;;;18.40;99.90;;;;;;5054577;28;20454;-85
2022/10/28 01:35:39;;;;;;;5.17;2.77;;;18.40;99.90;;;;;;5054691;28;20454;-86
2022/10/28 01:38:16;;;;;;;9.83;3.43;;;18.40;99.90;;;;;;5042101;28;20981;-85
2022/10/28 01:40:49;;;;;;;5.93;3.10;;;18.40;99.90;;;;;;5049618;28;20475;-85
2022/10/28 01:43:23;;;;;;;7.97;3.70;;;18.40;99.90;;;;;;5034379;28;20827;-85
2022/10/28 01:45:54;;;;;;;8.03;2.70;;;18.40;99.90;;;;;;5032666;28;20475;-85
2022/10/28 01:48:29;;;;;;;8.73;3.20;;;18.30;99.90;;;;;;5034750;28;20480;-85
2022/10/28 01:51:00;;;;;;;6.30;3.50;;;18.30;99.90;;;;;;5034740;28;20483;-85
2022/10/28 01:53:34;;;;;;;12.20;3.07;;;18.40;99.90;;;;;;5035073;28;20435;-86
2022/10/28 01:56:05;;;;;;;10.30;3.07;;;18.40;99.90;;;;;;5047337;28;20792;-85
2022/10/28 01:58:33;;;;;;;7.03;3.00;;;18.50;99.90;;;;;;5054011;28;20829;-86
2022/10/28 02:01:04;;;;;;;7.57;2.80;;;18.50;99.90;;;;;;5054499;28;20497;-86
2022/10/28 02:03:32;;;;;;;8.10;3.40;;;18.50;99.90;;;;;;5054594;28;20464;-85
2022/10/28 02:06:02;;;;;;;8.73;3.27;;;18.50;99.90;;;;;;5054348;28;20494;-85
2022/10/28 02:08:53;;;;;;;7.60;3.33;;;18.50;99.90;;;;;;5051510;28;20847;-86
2022/10/28 02:11:48;;;;;;;11.13;4.23;;;18.50;99.90;;;;;;5034235;28;20482;-84
2022/10/28 02:14:25;;;;;;;6.60;2.90;;;18.40;99.90;;;;;;5032977;28;20461;-85
2022/10/28 02:16:59;;;;;;;6.10;3.83;;;18.40;99.90;;;;;;5034379;28;20457;-85
2022/10/28 02:19:35;;;;;;;5.80;3.33;;;18.40;99.90;;;;;;5033331;28;20505;-86
2022/10/28 02:22:15;;;;;;;9.43;2.83;;;18.50;99.90;;;;;;5033970;28;20479;-85
2022/10/28 02:24:50;;;;;;;5.70;3.07;;;18.50;99.90;;;;;;5034393;28;20476;-83
2022/10/28 02:27:23;;;;;;;6.80;3.03;;;18.50;99.90;;;;;;5052887;28;20465;-85
2022/10/28 02:29:55;;;;;;;7.53;3.20;;;18.50;99.90;;;;;;5053540;28;20802;-85
2022/10/28 02:32:28;;;;;;;9.40;3.07;;;18.50;99.90;;;;;;5053533;28;20459;-85
2022/10/28 02:35:00;;;;;;;8.93;3.47;;;18.50;99.90;;;;;;5053069;28;20439;-85
2022/10/28 02:37:30;;;;;;;6.00;2.40;;;18.50;99.90;;;;;;5053916;28;20451;-86
2022/10/28 02:40:00;;;;;;;7.10;3.40;;;18.50;99.90;;;;;;5054035;28;20811;-85
2022/10/28 02:42:30;;;;;;;7.90;3.27;;;18.50;99.90;;;;;;5038837;28;20844;-86
2022/10/28 02:45:01;;;;;;;6.73;3.40;;;18.40;99.90;;;;;;5032950;28;21022;-84
2022/10/28 02:47:33;;;;;;;7.73;3.43;;;18.30;99.90;;;;;;5033092;28;20436;-85
2022/10/28 02:50:04;;;;;;;8.97;3.50;;;18.30;99.90;;;;;;5032253;28;20466;-86
2022/10/28 02:52:33;;;;;;;11.03;2.90;;;18.30;99.90;;;;;;5032866;28;20652;-84
2022/10/28 02:55:03;;;;;;;7.37;2.53;;;18.20;99.90;;;;;;5032970;28;20446;-85
2022/10/28 02:57:33;;;;;;;12.40;3.50;;;18.20;99.90;;;;;;5034000;28;21042;-85
2022/10/28 03:00:04;;;;;;;11.13;3.77;;;18.10;99.90;;;;;;5032859;28;20816;-86
2022/10/28 03:02:31;;;;;;;9.03;3.40;;;18.00;99.90;;;;;;5033008;28;20574;-85
2022/10/28 03:04:58;;;;;;;6.63;3.17;;;18.00;99.90;;;;;;5032984;28;20488;-86
2022/10/28 03:07:26;;;;;;;11.30;3.30;;;17.90;99.90;;;;;;5032736;28;20466;-86
2022/10/28 03:09:53;;;;;;;6.33;2.90;;;17.90;99.90;;;;;;5032160;28;20458;-85
2022/10/28 03:12:20;;;;;;;6.20;2.70;;;17.80;99.90;;;;;;5033123;28;20811;-84
2022/10/28 03:14:46;;;;;;;5.93;3.13;;;17.80;99.90;;;;;;5034116;28;20452;-87
2022/10/28 03:17:13;;;;;;;5.90;2.63;;;17.80;99.90;;;;;;5032840;28;20451;-83
2022/10/28 03:19:40;;;;;;;9.20;3.50;;;17.70;99.90;;;;;;5031897;28;20461;-86
2022/10/28 03:22:07;;;;;;;6.27;3.27;;;17.60;99.90;;;;;;5032486;28;20478;-86
2022/10/28 03:24:35;;;;;;;5.70;3.00;;;17.60;99.90;;;;;;5031838;28;20465;-85
2022/10/28 03:27:02;;;;;;;7.43;3.20;;;17.50;99.90;;;;;;5032489;28;20848;-85
2022/10/28 03:29:29;;;;;;;7.30;2.97;;;17.50;99.90;;;;;;5033792;28;20473;-85
2022/10/28 03:31:55;;;;;;;9.37;3.80;;;17.50;99.90;;;;;;5052294;28;20502;-84
2022/10/28 03:34:22;;;;;;;10.40;3.70;;;17.40;99.90;;;;;;5052267;28;20455;-85
2022/10/28 03:36:49;;;;;;;8.40;3.67;;;17.40;99.90;;;;;;5052315;28;20448;-86
2022/10/28 03:39:16;;;;;;;6.20;2.60;;;17.40;99.90;;;;;;5051268;28;20464;-85
2022/10/28 03:41:44;;;;;;;7.63;4.43;;;17.40;99.90;;;;;;5051993;28;21012;-85
2022/10/28 03:44:10;;;;;;;9.47;3.30;;;17.40;99.90;;;;;;5052733;28;20445;-85
2022/10/28 03:46:37;;;;;;;6.50;3.23;;;17.30;99.90;;;;;;5040722;28;21031;-85
2022/10/28 03:49:04;;;;;;;8.90;3.20;;;17.30;99.90;;;;;;5032100;28;20454;-85
2022/10/28 03:51:31;;;;;;;7.27;3.40;;;17.30;99.90;;;;;;5032151;28;20469;-83
2022/10/28 03:53:58;;;;;;;7.13;3.00;;;17.20;99.90;;;;;;5032433;28;20460;-85
2022/10/28 03:56:24;;;;;;;7.73;3.80;;;17.20;99.90;;;;;;5032219;28;20447;-85
2022/10/28 03:58:53;;;;;;;8.00;2.83;;;17.10;99.90;;;;;;5031412;28;20832;-85
2022/10/28 04:01:19;;;;;;;5.00;3.40;;;17.10;99.90;;;;;;5032289;28;20492;-85
2022/10/28 04:03:46;;;;;;;7.90;3.63;;;17.10;99.90;;;;;;5032736;28;20960;-85
2022/10/28 04:06:13;;;;;;;18.07;3.90;;;17.10;99.90;;;;;;5032116;28;20875;-86
2022/10/28 04:08:40;;;;;;;4.67;3.27;;;17.00;99.90;;;;;;5031955;28;20449;-85
2022/10/28 04:11:07;;;;;;;9.50;3.37;;;17.00;99.90;;;;;;5032419;28;20475;-83
2022/10/28 04:13:34;;;;;;;10.23;3.10;;;17.00;99.90;;;;;;5031835;28;20456;-85
2022/10/28 04:16:02;;;;;;;8.93;3.90;;;17.00;99.90;;;;;;5032254;28;20535;-86
2022/10/28 04:18:29;;;;;;;7.37;3.17;;;17.00;99.90;;;;;;5035347;28;20455;-85
2022/10/28 04:20:55;;;;;;;11.13;3.47;;;16.90;99.90;;;;;;5053723;28;20475;-84
2022/10/28 04:23:22;;;;;;;6.20;2.80;;;16.90;99.90;;;;;;5052246;28;20845;-85
2022/10/28 04:25:52;;;;;;;8.20;3.67;;;16.90;99.90;;;;;;5051925;28;20485;-84
2022/10/28 04:28:18;;;;;;;6.63;4.07;;;16.90;99.90;;;;;;5073159;28;20518;-85
2022/10/28 04:30:46;;;;;;;5.47;3.00;;;16.80;99.90;;;;;;5076274;28;20449;-85
2022/10/28 04:33:14;;;;;;;8.97;4.20;;;16.80;99.90;;;;;;5064109;28;20450;-85
2022/10/28 04:35:42;;;;;;;7.60;3.60;;;16.80;99.90;;;;;;5040704;28;20536;-85
2022/10/28 04:38:09;;;;;;;9.70;4.17;;;16.70;99.90;;;;;;5034610;28;20490;-85
2022/10/28 04:40:36;;;;;;;9.50;4.30;;;16.70;99.90;;;;;;5034776;28;20484;-85
2022/10/28 04:43:03;;;;;;;5.07;3.13;;;16.70;99.90;;;;;;5034834;28;20461;-86
2022/10/28 04:45:30;;;;;;;6.57;3.13;;;16.70;99.90;;;;;;5034909;28;20486;-86
2022/10/28 04:47:57;;;;;;;8.03;4.07;;;16.70;99.90;;;;;;5034187;28;20480;-84
2022/10/28 04:50:26;;;;;;;4.97;2.80;;;16.70;99.90;;;;;;5036975;28;20549;-86
2022/10/28 04:52:53;;;;;;;8.60;3.80;;;16.70;99.90;;;;;;5055190;28;20514;-86
2022/10/28 04:55:21;;;;;;;5.43;2.63;;;16.70;99.90;;;;;;5055447;28;20446;-84
2022/10/28 04:57:54;;;;;;;7.23;3.47;;;16.70;99.90;;;;;;5055983;28;21021;-84
2022/10/28 05:00:21;;;;;;;8.50;3.37;;;16.70;99.90;;;;;;5059473;28;20496;-85
2022/10/28 05:02:48;;;;;;;10.53;4.00;;;16.70;99.90;;;;;;5060529;28;20452;-85
2022/10/28 05:05:15;;;;;;;8.03;3.17;;;16.70;99.90;;;;;;5059030;28;20487;-86
2022/10/28 05:07:43;;;;;;;4.13;2.97;;;16.70;99.90;;;;;;5044210;28;21057;-84
2022/10/28 05:10:14;;;;;;;13.70;3.73;;;16.60;99.90;;;;;;5032524;28;20457;-86
2022/10/28 05:12:41;;;;;;;9.80;3.90;;;16.60;99.90;;;;;;5039389;28;20504;-86
2022/10/28 05:15:10;;;;;;;7.40;4.30;;;16.60;99.90;;;;;;5039343;28;20831;-84
2022/10/28 05:17:38;;;;;;;8.07;4.10;;;16.60;99.90;;;;;;5038175;28;20456;-86
2022/10/28 05:20:06;;;;;;;7.10;3.30;;;16.60;99.90;;;;;;5036889;28;20456;-86
2022/10/28 05:22:33;;;;;;;9.90;4.43;;;16.60;99.90;;;;;;5039290;28;20448;-85
2022/10/28 05:25:01;;;;;;;6.77;3.43;;;16.60;99.90;;;;;;5037829;28;20830;-86
2022/10/28 05:27:28;;;;;;;7.20;3.87;;;16.60;99.90;;;;;;5037274;28;20492;-86
2022/10/28 05:29:55;;;;;;;7.33;3.50;;;16.60;99.90;;;;;;5036785;28;21059;-84
2022/10/28 05:32:21;;;;;;;8.33;4.53;;;16.60;99.90;;;;;;5038376;28;20453;-85
2022/10/28 05:34:48;;;;;;;7.50;3.63;;;16.60;99.90;;;;;;5050074;28;20448;-86
2022/10/28 05:37:15;;;;;;;10.40;3.33;;;16.50;99.90;;;;;;5057291;28;20447;-86
2022/10/28 05:39:42;;;;;;;10.97;3.60;;;16.50;99.90;;;;;;5057341;28;20469;-85
2022/10/28 05:42:10;;;;;;;6.80;3.43;;;16.50;99.90;;;;;;5057017;28;20483;-86
2022/10/28 05:44:37;;;;;;;6.53;3.30;;;16.50;99.90;;;;;;5057036;28;20452;-86
2022/10/28 05:47:03;;;;;;;7.27;3.30;;;16.50;99.90;;;;;;5055263;28;20498;-86
2022/10/28 05:49:30;;;;;;;9.47;4.00;;;16.50;99.90;;;;;;5035404;28;20462;-84
2022/10/28 05:51:57;;;;;;;4.83;3.33;;;16.50;99.90;;;;;;5033473;28;21022;-88
2022/10/28 05:54:24;;;;;;;8.67;3.77;;;16.40;99.90;;;;;;5033776;28;20445;-89
2022/10/28 05:56:51;;;;;;;8.70;3.30;;;16.40;99.90;;;;;;5033599;28;20460;-89
2022/10/28 05:59:19;;;;;;;8.23;3.73;;;16.40;99.90;;;;;;5033036;28;20455;-88
2022/10/28 06:01:46;;;;;;;10.50;3.37;;;16.40;99.90;;;;;;5033516;28;20473;-88
2022/10/28 06:04:12;;;;;;;7.40;4.40;;;16.50;99.90;;;;;;5030283;28;20464;-88
2022/10/28 06:06:39;;;;;;;7.60;4.27;;;16.50;99.90;;;;;;5030297;28;20521;-89
2022/10/28 06:09:06;;;;;;;10.20;4.07;;;16.50;99.90;;;;;;5036718;28;20459;-88
2022/10/28 06:11:34;;;;;;;9.50;4.00;;;16.50;99.90;;;;;;5027408;28;20483;-88
2022/10/28 06:14:01;;;;;;;6.50;3.53;;;16.50;99.90;;;;;;5022234;28;20836;-88
2022/10/28 06:16:29;;;;;;;14.17;4.10;;;16.50;99.90;;;;;;5024549;28;20452;-88
2022/10/28 06:18:57;;;;;;;7.53;3.93;;;16.50;99.90;;;;;;5024566;28;20832;-88
2022/10/28 06:21:24;;;;;;;5.63;3.87;;;16.50;99.90;;;;;;5031099;28;20526;-88
2022/10/28 06:23:51;;;;;;;10.63;4.13;;;16.60;99.90;;;;;;5028884;28;20452;-88
2022/10/28 06:26:18;;;;;;;7.40;3.77;;;16.60;99.90;;;;;;5045709;28;20511;-84
2022/10/28 06:28:47;;;;;;;14.13;4.90;;;16.60;99.90;;;;;;5042259;28;20455;-84
2022/10/28 06:31:14;;;;;;;12.00;4.47;;;16.60;99.90;;;;;;5047163;28;20505;-85
2022/10/28 06:33:42;;;;;;;8.57;4.00;;;16.70;99.90;;;;;;5042191;28;20492;-86
2022/10/28 06:36:09;;;;;;;9.37;3.50;;;16.70;99.90;;;;;;5037370;28;20452;-84
2022/10/28 06:38:36;;;;;;;9.77;4.50;;;16.70;99.90;;;;;;5037664;28;20830;-85
2022/10/28 06:41:03;;;;;;;6.73;3.77;;;16.70;99.90;;;;;;5033788;28;20484;-84
2022/10/28 06:43:30;;;;;;;14.30;6.13;;;16.70;99.90;;;;;;5032654;28;20467;-84
2022/10/28 06:46:00;;;;;;;9.43;3.90;;;16.70;99.90;;;;;;5038884;28;20485;-84
2022/10/28 06:48:27;;;;;;;8.80;4.37;;;16.70;99.90;;;;;;5036629;28;20458;-84
2022/10/28 06:50:56;;;;;;;13.07;3.83;;;16.70;99.90;;;;;;5037485;28;20476;-85
2022/10/28 06:53:23;;;;;;;10.40;4.43;;;16.70;99.90;;;;;;5028990;28;21070;-86
2022/10/28 06:55:53;;;;;;;14.73;4.50;;;16.70;99.90;;;;;;5050428;28;20866;-85
2022/10/28 06:58:19;;;;;;;8.20;4.10;;;16.70;99.90;;;;;;5037000;28;20849;-85
2022/10/28 07:00:46;;;;;;;7.97;4.30;;;16.80;99.90;;;;;;5054849;28;20830;-87
2022/10/28 07:03:15;;;;;;;14.00;4.30;;;16.80;99.90;;;;;;5045504;28;20451;-87
2022/10/28 07:05:42;;;;;;;6.00;4.10;;;16.80;99.90;;;;;;5035225;28;20953;-87
2022/10/28 07:08:10;;;;;;;10.43;4.33;;;16.80;99.90;;;;;;5039303;28;20460;-87
2022/10/28 07:10:37;;;;;;;10.10;4.43;;;16.80;99.90;;;;;;5032599;28;20485;-87
2022/10/28 07:13:04;;;;;;;12.03;4.30;;;16.80;99.90;;;;;;5032645;28;20468;-86
2022/10/28 07:15:31;;;;;;;12.93;4.60;;;16.80;99.90;;;;;;5033015;28;20459;-86
2022/10/28 07:17:59;;;;;;;10.97;4.27;;;16.80;99.90;;;;;;5050227;28;21019;-86
2022/10/28 07:20:28;;;;;;;8.57;4.40;;;16.80;99.90;;;;;;5052220;28;20574;-86
2022/10/28 07:22:58;;;;;;;7.43;4.23;;;16.80;99.90;;;;;;5052549;28;20444;-86
2022/10/28 07:25:27;;;;;;;8.13;3.70;;;16.90;99.90;;;;;;5052274;28;20815;-87
2022/10/28 07:27:56;;;;;;;5.80;4.07;;;16.90;99.90;;;;;;5032639;28;20490;-86
2022/10/28 07:30:22;;;;;;;10.30;4.30;;;16.90;99.90;;;;;;5031944;28;20473;-87
2022/10/28 07:32:49;;;;;;;5.50;4.00;;;17.00;99.90;;;;;;5032014;28;20969;-88
2022/10/28 07:35:16;;;;;;;7.50;4.20;;;17.10;99.90;;;;;;5032228;28;20482;-87
2022/10/28 07:37:43;;;;;;;7.33;3.77;;;17.20;99.90;;;;;;5048399;28;20449;-88
2022/10/28 07:40:10;;;;;;;8.80;3.97;;;17.30;99.90;;;;;;5050902;28;20454;-87
2022/10/28 07:42:38;;;;;;;16.40;4.00;;;17.40;99.90;;;;;;5051821;28;20453;-86
2022/10/28 07:45:06;;;;;;;9.50;3.47;;;17.40;99.90;;;;;;5051671;28;20454;-87
2022/10/28 07:47:33;;;;;;;6.73;4.03;;;17.50;99.90;;;;;;5051091;28;20856;-87
2022/10/28 07:50:00;;;;;;;9.13;4.50;;;17.60;99.90;;;;;;5047138;28;20451;-88
2022/10/28 07:52:26;;;;;;;7.77;4.10;;;17.70;99.90;;;;;;5032263;28;20484;-87
2022/10/28 07:54:53;;;;;;;6.70;3.40;;;17.80;99.90;;;;;;5032089;28;20450;-87
2022/10/28 07:57:20;;;;;;;9.80;4.10;;;17.80;99.90;;;;;;5032113;28;20546;-87
2022/10/28 07:59:48;;;;;;;11.47;3.87;;;17.80;99.90;;;;;;5031477;28;20480;-87
2022/10/28 08:02:17;;;;;;;9.50;4.40;;;17.90;99.90;;;;;;5031578;28;20478;-87
2022/10/28 08:04:44;;;;;;;7.53;4.00;;;18.00;99.90;;;;;;5031948;28;20461;-87
2022/10/28 08:07:12;;;;;;;10.33;3.93;;;18.00;99.90;;;;;;5042847;28;20486;-87
2022/10/28 08:09:39;;;;;;;11.23;4.47;;;18.10;99.90;;;;;;5050986;28;20454;-86
2022/10/28 08:12:06;;;;;;;9.20;4.13;;;18.10;99.90;;;;;;5051345;28;20473;-86
2022/10/28 08:14:33;;;;;;;9.70;4.33;;;18.20;99.90;;;;;;5051630;28;20447;-88
2022/10/28 08:17:02;;;;;;;13.20;4.90;;;18.20;99.90;;;;;;5041704;28;20626;-88
2022/10/28 08:19:29;;;;;;;12.47;4.10;;;18.20;99.90;;;;;;5030556;28;20969;-87
2022/10/28 08:21:55;;;;;;;13.00;4.50;;;18.30;99.90;;;;;;5031094;28;20475;-88
2022/10/28 08:24:22;;;;;;;11.10;5.90;;;18.30;99.90;;;;;;5031409;28;20443;-87
2022/10/28 08:26:49;;;;;;;9.80;5.40;;;18.30;99.90;;;;;;5038839;28;20481;-87
2022/10/28 08:29:16;;;;;;;9.00;5.53;;;18.30;99.90;;;;;;5051146;28;20478;-88
2022/10/28 08:31:43;;;;;;;11.93;6.60;;;18.30;99.90;;;;;;5050992;28;20844;-88
2022/10/28 08:34:11;;;;;;;9.33;4.33;;;18.30;99.90;;;;;;5054104;28;20460;-87
2022/10/28 08:36:38;;;;;;;10.10;4.80;;;18.40;99.90;;;;;;5050006;28;20454;-88
2022/10/28 08:39:05;;;;;;;8.90;5.13;;;18.40;99.90;;;;;;5034641;28;20602;-88
2022/10/28 08:41:38;;;;;;;10.27;4.47;;;18.40;99.90;;;;;;5034377;28;20566;-86
2022/10/28 08:44:35;;;;;;;10.47;4.53;;;18.40;99.90;;;;;;5035299;28;20444;-88
2022/10/28 08:47:28;;;;;;;9.43;4.67;;;18.40;99.90;;;;;;5034892;28;20488;-88
2022/10/28 08:50:01;;;;;;;8.27;4.60;;;18.50;99.90;;;;;;5033609;28;20473;-86
2022/10/28 08:52:32;;;;;;;10.43;4.97;;;18.50;99.90;;;;;;5035071;28;20461;-88
2022/10/28 08:55:04;;;;;;;10.37;4.43;;;18.50;99.90;;;;;;5034655;28;20955;-86
2022/10/28 08:57:38;;;;;;;9.93;4.53;;;18.50;99.90;;;;;;5047676;28;20467;-87
2022/10/28 09:00:07;;;;;;;6.03;3.90;;;18.60;99.90;;;;;;5054043;28;20450;-88
2022/10/28 09:02:47;;;;;;;8.23;4.33;;;18.60;99.90;;;;;;5054577;28;20454;-88
2022/10/28 09:05:21;;;;;;;7.93;4.00;;;18.60;99.90;;;;;;5054795;28;20460;-88
2022/10/28 09:07:48;;;;;;;7.43;3.90;;;18.70;99.90;;;;;;5039231;28;20485;-86
2022/10/28 09:10:16;;;;;;;18.90;4.67;;;18.80;99.90;;;;;;5034581;28;20964;-87
2022/10/28 09:12:53;;;;;;;9.03;4.03;;;18.80;99.90;;;;;;5034726;28;20455;-87
2022/10/28 09:15:30;;;;;;;11.60;3.90;;;18.90;99.90;;;;;;5034382;28;20451;-87
2022/10/28 09:18:08;;;;;;;9.17;4.20;;;19.00;99.90;;;;;;5051334;28;20443;-87
2022/10/28 09:20:47;;;;;;;8.33;4.00;;;19.10;99.90;;;;;;5054587;28;20990;-88
2022/10/28 09:23:24;;;;;;;13.53;3.53;;;19.20;99.90;;;;;;5054263;28;20459;-87
2022/10/28 09:26:09;;;;;;;9.13;3.40;;;19.20;99.90;;;;;;5053906;28;20530;-87
2022/10/28 09:28:55;;;;;;;11.20;3.80;;;19.40;99.90;;;;;;5032872;28;20490;-88
2022/10/28 09:31:30;;;;;;;9.07;3.67;;;19.40;99.90;;;;;;5034014;28;20512;-88
2022/10/28 09:34:07;;;;;;;11.90;4.97;;;19.50;99.90;;;;;;5037122;28;20451;-87
2022/10/28 09:36:45;;;;;;;5.90;3.60;;;19.60;99.90;;;;;;5032773;28;21047;-88
2022/10/28 09:39:18;;;;;;;9.73;3.90;;;19.70;99.90;;;;;;5026481;28;20460;-86
2022/10/28 09:41:47;;;;;;;11.43;3.87;;;19.80;99.90;;;;;;5060048;28;20507;-87
2022/10/28 09:44:19;;;;;;;5.20;3.20;;;19.90;99.90;;;;;;5048771;28;20452;-86
2022/10/28 09:46:48;;;;;;;5.10;3.23;;;19.90;99.90;;;;;;5036522;28;20571;-86
2022/10/28 09:49:20;;;;;;;12.47;3.83;;;20.00;99.90;;;;;;5035798;28;20824;-88
2022/10/28 09:51:54;;;;;;;9.20;3.30;;;20.10;99.90;;;;;;5035882;28;20475;-87
2022/10/28 09:54:28;;;;;;;7.50;4.50;;;20.20;99.90;;;;;;5036663;28;20447;-86
2022/10/28 09:56:55;;;;;;;10.33;3.93;;;20.30;99.90;;;;;;5038637;28;20508;-87
2022/10/28 09:59:22;;;;;;;7.80;3.50;;;20.40;99.90;;;;;;5034735;28;20484;-86
2022/10/28 10:01:48;;;;;;;8.53;3.27;;;20.60;99.90;;;;;;5033664;28;20581;-87
2022/10/28 10:04:21;;;;;;;13.07;4.20;;;20.70;99.90;;;;;;5031137;28;20464;-86
2022/10/28 10:06:51;;;;;;;10.13;4.93;;;21.00;99.90;;;;;;5019642;28;20493;-87
2022/10/28 10:09:23;;;;;;;7.37;3.13;;;21.10;99.90;;;;;;5018625;28;20446;-87
2022/10/28 10:11:52;;;;;;;11.17;3.40;;;21.20;99.90;;;;;;5040214;28;20478;-87
2022/10/28 10:14:25;;;;;;;15.13;4.47;;;21.30;99.90;;;;;;5054512;28;20542;-86
2022/10/28 10:16:54;;;;;;;12.93;4.07;;;21.40;99.90;;;;;;5038661;28;20440;-86
2022/10/28 10:19:21;;;;;;;11.33;3.27;;;21.60;99.90;;;;;;5032746;28;20452;-88
2022/10/28 10:21:51;;;;;;;8.17;4.13;;;21.70;99.90;;;;;;5033640;28;20807;-88
2022/10/28 10:24:44;;;;;;;8.17;3.33;;;21.90;99.90;;;;;;5027744;28;20461;-88
2022/10/28 10:27:19;;;;;;;8.20;3.40;;;22.20;99.90;;;;;;5038181;28;20475;-88
2022/10/28 10:29:49;;;;;;;14.67;3.77;;;22.40;99.90;;;;;;5053347;28;20832;-87
2022/10/28 10:32:19;;;;;;;9.80;4.30;;;22.40;99.90;;;;;;5033045;28;20499;-88
2022/10/28 10:34:52;;;;;;;12.00;3.47;;;22.60;99.90;;;;;;5033434;28;20453;-87
2022/10/28 10:37:22;;;;;;;7.00;3.23;;;22.60;99.90;;;;;;5034019;28;20433;-86
2022/10/28 10:40:16;;;;;;;9.07;3.70;;;22.70;99.90;;;;;;5032523;28;20543;-86
2022/10/28 10:42:43;;;;;;;12.40;4.40;;;22.80;99.90;;;;;;5040210;28;20440;-86
2022/10/28 10:45:20;;;;;;;7.43;3.33;;;23.00;99.90;;;;;;5053597;28;20459;-86
2022/10/28 10:47:47;;;;;;;13.20;3.80;;;23.10;99.90;;;;;;5052996;28;21081;-86
2022/10/28 10:50:27;;;;;;;10.07;3.70;;;23.20;99.90;;;;;;5053225;28;20452;-87
2022/10/28 10:52:58;;;;;;;8.10;3.53;;;23.60;99.90;;;;;;5053264;28;20477;-85
2022/10/28 10:55:34;;;;;;;12.37;4.10;;;24.10;99.90;;;;;;5053408;28;20444;-86
2022/10/28 10:58:02;;;;;;;9.23;3.20;;;24.20;99.90;;;;;;5053803;28;20462;-84
2022/10/28 11:00:32;;;;;;;12.90;3.73;;;24.10;99.90;;;;;;5053862;28;20467;-88
2022/10/28 11:03:06;;;;;;;9.83;3.63;;;24.20;99.90;;;;;;5054147;28;20439;-88
2022/10/28 11:05:33;;;;;;;13.73;3.50;;;24.50;99.90;;;;;;5052032;28;20508;-87
2022/10/28 11:08:05;;;;;;;7.80;2.97;;;24.50;99.90;;;;;;5047252;28;20938;-88
2022/10/28 11:10:34;;;;;;;5.07;2.80;;;24.60;99.90;;;;;;5033484;28;20472;-87
2022/10/28 11:13:04;;;;;;;11.40;3.50;;;24.90;99.90;;;;;;5034897;28;20510;-87
2022/10/28 11:15:32;;;;;;;12.23;3.90;;;25.50;99.90;;;;;;5035261;28;20586;-87
2022/10/28 11:18:01;;;;;;;9.30;3.77;;;25.90;99.90;;;;;;5038646;28;20555;-88
2022/10/28 11:20:42;;;;;;;13.97;3.60;;;26.40;99.90;;;;;;5055423;28;20873;-86
2022/10/28 11:23:35;;;;;;;10.47;5.30;;;26.30;99.90;;;;;;5055094;28;20440;-87
2022/10/28 11:26:05;;;;;;;13.07;4.70;;;26.40;99.90;;;;;;5064535;28;20452;-88
2022/10/28 11:29:01;;;;;;;6.60;3.60;;;26.40;99.90;;;;;;5043173;28;20491;-86
2022/10/28 11:31:53;;;;;;;12.80;4.17;;;26.90;99.90;;;;;;5032307;28;20556;-86
2022/10/28 11:34:46;;;;;;;11.27;4.00;;;28.00;99.90;;;;;;5032865;28;20433;-85
2022/10/28 11:37:22;;;;;;;6.63;3.40;;;28.60;99.90;;;;;;5032825;28;20557;-87
2022/10/28 11:40:03;;;;;;;12.60;4.67;;;28.10;99.90;;;;;;5032570;28;20452;-84
2022/10/28 11:42:36;;;;;;;10.23;3.33;;;27.40;99.90;;;;;;5032375;28;20448;-87
2022/10/28 11:45:09;;;;;;;12.13;5.10;;;27.10;99.90;;;;;;5033459;28;20460;-87
2022/10/28 11:47:50;;;;;;;11.77;3.67;;;27.20;99.90;;;;;;5033317;28;20473;-86
2022/10/28 11:50:35;;;;;;;9.57;3.63;;;27.40;99.90;;;;;;5033988;28;20448;-87
2022/10/28 11:53:21;;;;;;;7.90;2.73;;;27.20;99.90;;;;;;5034165;28;20503;-87
2022/10/28 11:55:57;;;;;;;8.60;3.10;;;27.40;99.90;;;;;;5046679;28;20460;-87
2022/10/28 11:58:32;;;;;;;14.33;3.57;;;27.10;99.90;;;;;;5053802;28;20467;-87
2022/10/28 12:01:09;;;;;;;7.73;3.80;;;27.10;99.90;;;;;;5052842;28;20797;-87
2022/10/28 12:04:00;;;;;;;10.23;3.67;;;26.90;99.90;;;;;;5055617;28;20432;-87
2022/10/28 12:06:40;;;;;;;10.40;3.37;;;26.50;99.90;;;;;;5068256;28;20440;-88
2022/10/28 12:09:15;;;;;;;7.53;2.97;;;26.30;99.90;;;;;;5077109;28;20487;-88
2022/10/28 12:11:58;;;;;;;6.10;3.23;;;26.50;99.90;;;;;;5076670;28;20567;-87
2022/10/28 12:14:33;;;;;;;9.73;3.60;;;27.00;99.90;;;;;;5025784;28;20460;-86
2022/10/28 12:17:11;;;;;;;9.67;3.83;;;27.20;99.90;;;;;;5017667;28;20449;-87
2022/10/28 12:19:44;;;;;;;11.60;3.63;;;27.40;99.90;;;;;;5017156;28;20442;-87
2022/10/28 12:22:16;;;;;;;11.23;3.30;;;27.40;99.90;;;;;;5018874;28;20473;-87
2022/10/28 12:24:46;;;;;;;9.67;3.53;;;27.10;99.90;;;;;;5020962;28;20467;-86
2022/10/28 12:27:18;;;;;;;7.23;3.17;;;27.10;99.90;;;;;;5058514;28;20448;-86
2022/10/28 12:29:49;;;;;;;8.90;2.93;;;27.10;99.90;;;;;;5038900;28;20530;-86
2022/10/28 12:32:22;;;;;;;7.50;3.67;;;27.10;99.90;;;;;;5035067;28;20505;-85
2022/10/28 12:34:53;;;;;;;10.63;3.00;;;27.00;99.90;;;;;;5038707;28;20443;-88
2022/10/28 12:37:23;;;;;;;10.53;4.00;;;26.80;99.90;;;;;;5031196;28;20463;-86
2022/10/28 12:39:55;;;;;;;12.63;3.97;;;26.70;99.90;;;;;;5035341;28;20455;-86
2022/10/28 12:42:28;;;;;;;6.10;3.97;;;26.70;99.90;;;;;;5034666;28;20469;-85
2022/10/28 12:44:58;;;;;;;10.97;3.30;;;26.50;99.90;;;;;;5036528;28;20465;-84
2022/10/28 12:47:33;;;;;;;11.40;3.80;;;26.60;99.90;;;;;;5039463;28;20459;-85
2022/10/28 12:50:09;;;;;;;10.13;3.27;;;26.80;99.90;;;;;;5034938;28;20825;-86
2022/10/28 12:52:43;;;;;;;9.50;2.87;;;27.10;99.90;;;;;;5030858;28;20444;-86
2022/10/28 12:55:25;;;;;;;7.43;3.60;;;27.40;99.90;;;;;;5048059;28;20447;-86
2022/10/28 12:57:59;;;;;;;9.47;3.07;;;27.50;99.90;;;;;;5055957;28;20511;-85
2022/10/28 13:00:29;;;;;;;10.07;3.60;;;27.40;99.90;;;;;;5038063;28;20996;-87
2022/10/28 13:03:01;;;;;;;10.10;3.87;;;27.50;99.90;;;;;;5033921;28;20482;-86